Time;durP1;ratioP1;P1;durP2;ratioP2;P2;SDS_P1;SDS_P2;PMS_P1;PMS_P2;Temp;Humidity;BMP_temperature;BMP_pressure;BME280_temperature;BME280_humidity;BME280_pressure;Samples;Min_cycle;Max_cycle;Signal;HPM_P1;HPM_P2
2023/09/15 00:00:20;;;;;;;8.43;4.07;;;;;;;;;;5066295;28;20464;-84
2023/09/15 00:02:47;;;;;;;5.97;4.00;;;15.40;99.90;;;;;;5066590;28;20219;-82
2023/09/15 00:05:13;;;;;;;6.10;3.80;;;15.40;99.90;;;;;;5066496;28;20447;-84
2023/09/15 00:07:39;;;;;;;8.67;4.17;;;15.40;99.90;;;;;;5070854;28;20454;-83
2023/09/15 00:10:11;;;;;;;11.23;4.27;;;16.30;99.90;;;;;;5058462;28;20514;-83
2023/09/15 00:12:38;;;;;;;8.27;4.40;;;15.30;1.00;;;;;;5068756;28;20675;-82
2023/09/15 00:15:08;;;;;;;6.73;4.50;;;15.50;1.00;;;;;;5067335;28;20444;-84
2023/09/15 00:17:35;;;;;;;9.63;5.07;;;15.20;99.90;;;;;;5069169;28;20863;-82
2023/09/15 00:20:00;;;;;;;5.03;4.10;;;15.10;99.90;;;;;;5072314;28;20532;-83
2023/09/15 00:22:26;;;;;;;5.57;4.10;;;15.20;99.90;;;;;;5072698;28;20460;-84
2023/09/15 00:24:51;;;;;;;7.10;4.20;;;15.00;1.00;;;;;;5066060;28;20251;-83
2023/09/15 00:27:17;;;;;;;8.97;4.90;;;14.90;89.00;;;;;;5063910;28;20194;-83
2023/09/15 00:29:43;;;;;;;9.38;3.85;;;14.90;99.90;;;;;;5059884;28;20234;-85
2023/09/15 00:32:08;;;;;;;5.37;4.50;;;15.00;99.90;;;;;;5062490;28;20212;-83
2023/09/15 00:34:34;;;;;;;6.10;4.20;;;14.90;99.90;;;;;;5074165;28;20190;-82
2023/09/15 00:36:59;;;;;;;11.47;4.93;;;14.90;99.90;;;;;;5068499;28;20187;-83
2023/09/15 00:39:25;;;;;;;12.03;4.40;;;14.90;25.80;;;;;;5068513;28;20228;-84
2023/09/15 00:41:51;;;;;;;14.13;4.07;;;;;;;;;;5060759;28;20296;-83
2023/09/15 00:44:16;;;;;;;7.27;4.23;;;14.90;99.90;;;;;;5067874;28;20257;-84
2023/09/15 00:46:42;;;;;;;10.17;4.30;;;14.70;99.90;;;;;;5074649;28;20432;-84
2023/09/15 00:49:08;;;;;;;6.87;4.37;;;14.70;1.00;;;;;;5069434;28;20556;-82
2023/09/15 00:51:34;;;;;;;11.03;4.23;;;14.50;1.00;;;;;;5072937;28;20205;-85
2023/09/15 00:54:00;;;;;;;10.97;4.43;;;14.90;1.00;;;;;;5067476;28;20188;-83
2023/09/15 00:56:26;;;;;;;9.97;5.43;;;14.70;30.20;;;;;;5073488;28;20212;-83
2023/09/15 00:58:52;;;;;;;7.70;4.90;;;14.50;99.90;;;;;;5071798;28;20445;-84
2023/09/15 01:01:18;;;;;;;10.80;5.07;;;14.40;1.00;;;;;;5066838;28;20479;-83
2023/09/15 01:03:45;;;;;;;13.43;4.50;;;14.30;1.00;;;;;;5064636;28;20454;-82
2023/09/15 01:06:12;;;;;;;9.40;4.33;;;14.60;1.00;;;;;;5063772;28;20192;-83
2023/09/15 01:08:38;;;;;;;11.93;5.50;;;14.50;1.00;;;;;;5078547;28;20532;-84
2023/09/15 01:11:05;;;;;;;10.27;4.60;;;14.50;1.00;;;;;;5075401;28;20496;-85
2023/09/15 01:13:34;;;;;;;8.50;4.27;;;14.40;16.20;;;;;;5070774;28;20273;-84
2023/09/15 01:16:32;;;;;;;7.88;4.78;;;14.80;1.00;;;;;;5062279;28;20902;-84
2023/09/15 01:19:08;;;;;;;7.00;4.67;;;14.40;1.00;;;;;;5074189;28;20185;-85
2023/09/15 01:21:58;;;;;;;8.20;4.38;;;14.60;1.00;;;;;;5072440;28;20468;-84
2023/09/15 01:24:50;;;;;;;8.73;4.50;;;14.60;1.00;;;;;;5064659;28;20268;-83
2023/09/15 01:27:55;;;;;;;11.50;4.60;;;14.60;99.90;;;;;;5058749;28;20444;-84
2023/09/15 01:30:23;;;;;;;10.97;4.47;;;14.50;1.00;;;;;;5061054;28;20984;-83
2023/09/15 01:32:52;;;;;;;17.23;5.63;;;14.20;87.10;;;;;;5073578;28;20444;-83
2023/09/15 01:35:18;;;;;;;10.60;5.32;;;14.50;1.00;;;;;;5079214;28;20910;-83
2023/09/15 01:37:44;;;;;;;10.63;4.63;;;14.00;87.70;;;;;;5062859;28;20214;-84
2023/09/15 01:40:10;;;;;;;10.57;5.53;;;14.30;22.40;;;;;;5061761;28;20209;-83
2023/09/15 01:42:37;;;;;;;9.87;5.23;;;14.50;99.90;;;;;;5075194;28;20471;-83
2023/09/15 01:45:03;;;;;;;11.93;5.10;;;14.10;99.90;;;;;;5068557;28;20468;-83
2023/09/15 01:47:30;;;;;;;7.63;4.33;;;14.20;99.90;;;;;;5079857;28;20806;-84
2023/09/15 01:49:57;;;;;;;12.20;5.23;;;14.20;99.90;;;;;;5067059;28;20185;-83
2023/09/15 01:52:23;;;;;;;7.77;5.13;;;14.10;99.90;;;;;;5070916;28;20458;-81
2023/09/15 01:54:51;;;;;;;8.30;5.13;;;14.00;1.00;;;;;;5072997;28;20445;-83
2023/09/15 01:57:17;;;;;;;7.40;5.00;;;14.30;1.00;;;;;;5066261;28;20544;-82
2023/09/15 01:59:42;;;;;;;9.20;4.03;;;14.00;1.00;;;;;;5064584;28;20468;-83
2023/09/15 02:02:08;;;;;;;8.83;5.33;;;14.00;1.00;;;;;;5076889;28;20213;-80
2023/09/15 02:04:33;;;;;;;10.90;4.40;;;14.00;1.00;;;;;;5078477;28;20180;-84
2023/09/15 02:06:59;;;;;;;7.03;4.93;;;13.90;1.00;;;;;;5077598;28;20201;-84
2023/09/15 02:09:24;;;;;;;6.13;5.13;;;13.90;1.00;;;;;;5069252;28;20186;-85
2023/09/15 02:11:50;;;;;;;5.27;4.50;;;14.30;55.50;;;;;;5079139;28;20217;-85
2023/09/15 02:14:15;;;;;;;7.87;5.20;;;13.80;99.90;;;;;;5073626;28;20193;-83
2023/09/15 02:16:42;;;;;;;7.40;4.57;;;13.70;99.90;;;;;;5079600;28;20181;-84
2023/09/15 02:19:08;;;;;;;10.67;5.00;;;13.80;99.90;;;;;;5068471;28;20272;-83
2023/09/15 02:21:33;;;;;;;7.53;5.00;;;13.60;21.50;;;;;;5066265;28;20499;-84
2023/09/15 02:24:01;;;;;;;22.50;4.97;;;13.80;68.60;;;;;;5068507;28;20185;-84
2023/09/15 02:26:26;;;;;;;6.83;4.80;;;13.80;42.20;;;;;;5073155;28;20182;-84
2023/09/15 02:28:52;;;;;;;5.93;4.93;;;13.80;72.30;;;;;;5074343;28;21001;-82
2023/09/15 02:31:18;;;;;;;6.10;4.80;;;13.70;99.90;;;;;;5074786;28;20721;-82
2023/09/15 02:33:45;;;;;;;8.40;5.73;;;13.70;99.90;;;;;;5066764;28;20278;-83
2023/09/15 02:36:10;;;;;;;11.57;5.30;;;13.70;99.90;;;;;;5072472;28;20459;-81
2023/09/15 02:38:36;;;;;;;8.97;6.50;;;13.70;99.90;;;;;;5077596;28;20436;-84
2023/09/15 02:41:01;;;;;;;9.40;5.97;;;13.30;99.90;;;;;;5070894;28;20212;-83
2023/09/15 02:43:27;;;;;;;7.70;5.00;;;13.70;99.90;;;;;;5077400;28;20706;-84
2023/09/15 02:45:52;;;;;;;10.20;5.90;;;13.60;99.90;;;;;;5069968;28;20195;-83
2023/09/15 02:48:18;;;;;;;7.80;5.90;;;13.60;99.90;;;;;;5070978;28;20192;-84
2023/09/15 02:50:46;;;;;;;14.13;6.40;;;13.70;99.90;;;;;;5074419;28;20204;-84
2023/09/15 02:53:12;;;;;;;11.43;7.20;;;13.60;99.90;;;;;;5082454;28;20232;-84
2023/09/15 02:55:37;;;;;;;8.63;6.13;;;13.20;99.90;;;;;;5075709;28;20442;-83
2023/09/15 02:58:04;;;;;;;15.33;7.47;;;13.50;99.90;;;;;;5067726;28;20186;-83
2023/09/15 03:00:30;;;;;;;10.03;6.50;;;13.50;99.90;;;;;;5076945;28;20201;-83
2023/09/15 03:02:56;;;;;;;13.47;7.00;;;13.50;99.90;;;;;;5070816;28;20843;-84
2023/09/15 03:05:21;;;;;;;7.77;6.47;;;13.40;99.90;;;;;;5064559;28;20182;-84
2023/09/15 03:07:47;;;;;;;12.03;6.80;;;13.40;99.90;;;;;;5062874;28;20200;-84
2023/09/15 03:10:12;;;;;;;14.70;7.00;;;13.40;99.90;;;;;;5064502;28;20632;-83
2023/09/15 03:12:38;;;;;;;11.60;7.20;;;13.40;99.90;;;;;;5076891;28;20188;-83
2023/09/15 03:15:06;;;;;;;13.37;6.10;;;13.40;99.90;;;;;;5070258;28;20181;-82
2023/09/15 03:17:36;;;;;;;10.27;7.57;;;13.30;99.90;;;;;;5069817;28;20178;-85
2023/09/15 03:20:13;;;;;;;9.43;8.10;;;13.40;99.90;;;;;;5066393;28;20781;-83
2023/09/15 03:22:41;;;;;;;16.97;8.07;;;13.40;99.90;;;;;;5069838;28;20216;-84
2023/09/15 03:25:07;;;;;;;14.20;7.40;;;13.40;99.90;;;;;;5070883;28;20442;-83
2023/09/15 03:27:32;;;;;;;10.73;7.57;;;13.40;99.90;;;;;;5066198;28;20523;-84
2023/09/15 03:29:58;;;;;;;18.93;8.20;;;13.40;99.90;;;;;;5062844;28;20180;-83
2023/09/15 03:32:23;;;;;;;10.80;7.77;;;13.30;99.90;;;;;;5071431;28;20252;-83
2023/09/15 03:34:49;;;;;;;13.63;8.03;;;13.30;99.90;;;;;;5075231;28;20189;-84
2023/09/15 03:37:14;;;;;;;14.17;8.40;;;13.30;99.90;;;;;;5073324;28;20695;-84
2023/09/15 03:39:40;;;;;;;12.20;8.80;;;13.20;1.00;;;;;;5077557;28;20203;-84
2023/09/15 03:42:05;;;;;;;13.53;9.20;;;13.50;99.90;;;;;;5068711;28;20212;-83
2023/09/15 03:44:31;;;;;;;12.90;8.30;;;13.20;1.00;;;;;;5070273;28;20219;-84
2023/09/15 03:46:57;;;;;;;11.63;8.60;;;13.10;1.00;;;;;;5074494;28;20189;-84
2023/09/15 03:49:22;;;;;;;14.80;8.50;;;13.10;1.00;;;;;;5074565;28;20181;-84
2023/09/15 03:51:48;;;;;;;11.30;8.30;;;13.30;1.00;;;;;;5071258;28;20209;-83
2023/09/15 03:54:13;;;;;;;12.83;9.63;;;13.10;1.00;;;;;;5070076;28;20181;-84
2023/09/15 03:56:39;;;;;;;18.97;10.70;;;13.90;1.00;;;;;;5074934;28;20182;-84
2023/09/15 03:59:04;;;;;;;13.43;10.63;;;13.00;1.00;;;;;;5077529;28;20200;-83
2023/09/15 04:01:31;;;;;;;15.77;10.90;;;14.30;1.00;;;;;;5070096;28;20200;-82
2023/09/15 04:03:56;;;;;;;14.47;11.20;;;13.20;1.00;;;;;;5075321;28;20198;-83
2023/09/15 04:06:22;;;;;;;19.97;11.90;;;13.10;1.00;;;;;;5075884;28;20453;-83
2023/09/15 04:08:48;;;;;;;19.00;14.23;;;13.10;1.00;;;;;;5080247;28;20180;-83
2023/09/15 04:11:13;;;;;;;23.10;12.20;;;13.00;1.00;;;;;;5064952;28;20203;-83
2023/09/15 04:13:39;;;;;;;24.47;14.17;;;13.00;1.00;;;;;;5064501;28;20169;-84
2023/09/15 04:16:05;;;;;;;17.73;13.70;;;12.40;1.00;;;;;;5077681;28;20247;-84
2023/09/15 04:18:32;;;;;;;16.10;13.50;;;12.90;1.00;;;;;;5069651;28;20518;-82
2023/09/15 04:20:57;;;;;;;13.83;11.13;;;13.00;1.00;;;;;;5070677;28;20266;-84
2023/09/15 04:23:23;;;;;;;16.60;11.90;;;12.90;1.00;;;;;;5073749;28;20463;-84
2023/09/15 04:25:49;;;;;;;21.23;13.20;;;12.90;1.00;;;;;;5066691;28;20313;-83
2023/09/15 04:28:14;;;;;;;16.30;11.20;;;12.50;1.00;;;;;;5069428;28;20178;-83
2023/09/15 04:30:40;;;;;;;19.17;12.10;;;12.10;1.00;;;;;;5067832;28;20513;-83
2023/09/15 04:33:05;;;;;;;15.07;11.93;;;13.90;1.00;;;;;;5064198;28;20177;-84
2023/09/15 04:35:31;;;;;;;16.60;12.10;;;12.80;1.00;;;;;;5067485;28;20177;-82
2023/09/15 04:37:57;;;;;;;14.53;11.20;;;12.60;1.00;;;;;;5073195;28;20186;-82
2023/09/15 04:40:23;;;;;;;17.80;12.20;;;12.80;1.00;;;;;;5068656;28;20207;-83
2023/09/15 04:42:49;;;;;;;16.23;11.37;;;12.60;1.00;;;;;;5071024;28;20463;-84
2023/09/15 04:45:15;;;;;;;15.87;11.70;;;12.30;1.00;;;;;;5062053;28;20232;-83
2023/09/15 04:47:40;;;;;;;14.53;10.10;;;12.80;1.00;;;;;;5060058;28;20472;-84
2023/09/15 04:50:07;;;;;;;17.10;11.40;;;12.70;1.00;;;;;;5070800;28;20539;-84
2023/09/15 04:52:33;;;;;;;14.53;11.47;;;12.80;1.00;;;;;;5072519;28;20245;-81
2023/09/15 04:54:59;;;;;;;13.37;10.03;;;12.70;1.00;;;;;;5065763;28;20501;-82
2023/09/15 04:57:24;;;;;;;23.03;10.67;;;12.70;1.00;;;;;;5073331;28;20446;-84
2023/09/15 04:59:53;;;;;;;17.27;10.37;;;12.80;1.00;;;;;;5063942;28;20185;-81
2023/09/15 05:02:25;;;;;;;18.63;10.77;;;12.80;1.00;;;;;;5072742;28;20233;-82
2023/09/15 05:04:52;;;;;;;14.97;10.30;;;12.80;1.00;;;;;;5070641;28;20470;-84
2023/09/15 05:07:18;;;;;;;18.57;11.17;;;12.70;1.00;;;;;;5066461;28;20462;-80
2023/09/15 05:09:45;;;;;;;18.07;10.80;;;12.60;1.00;;;;;;5070188;28;20427;-84
2023/09/15 05:12:13;;;;;;;13.13;10.00;;;12.70;1.00;;;;;;5074834;28;20463;-82
2023/09/15 05:14:39;;;;;;;14.60;11.00;;;13.00;1.00;;;;;;5075108;28;20450;-84
2023/09/15 05:17:05;;;;;;;14.20;11.20;;;12.70;1.00;;;;;;5077405;28;20473;-83
2023/09/15 05:19:31;;;;;;;17.50;10.97;;;13.30;1.00;;;;;;5032126;28;1030961;-84
2023/09/15 05:21:56;;;;;;;19.07;10.23;;;12.80;1.00;;;;;;5080770;28;20205;-84
2023/09/15 05:24:22;;;;;;;18.00;11.17;;;12.80;1.00;;;;;;5080788;28;20176;-85
2023/09/15 05:26:47;;;;;;;13.70;10.50;;;12.80;1.00;;;;;;5078175;28;20181;-84
2023/09/15 05:29:13;;;;;;;17.30;11.87;;;12.90;1.00;;;;;;5075053;28;20177;-84
2023/09/15 05:31:38;;;;;;;18.23;11.10;;;12.90;1.00;;;;;;5078442;28;20201;-84
2023/09/15 05:34:04;;;;;;;15.53;12.20;;;12.90;1.00;;;;;;5079701;28;20538;-83
2023/09/15 05:36:30;;;;;;;13.67;11.13;;;13.00;1.00;;;;;;5076579;28;20327;-83
2023/09/15 05:38:55;;;;;;;20.90;12.20;;;13.10;1.00;;;;;;5075032;28;20181;-84
2023/09/15 05:41:21;;;;;;;15.07;10.13;;;13.10;1.00;;;;;;5072695;28;20218;-84
2023/09/15 05:43:46;;;;;;;16.57;10.80;;;13.20;1.00;;;;;;5071729;28;20188;-84
2023/09/15 05:46:12;;;;;;;14.53;10.70;;;13.40;1.00;;;;;;5083485;28;20180;-84
2023/09/15 05:48:37;;;;;;;12.40;8.67;;;14.70;99.90;;;;;;5073839;28;20242;-84
2023/09/15 05:51:06;;;;;;;17.57;9.17;;;17.10;99.90;;;;;;5072659;28;20337;-84
2023/09/15 05:53:32;;;;;;;9.33;7.17;;;19.10;99.90;;;;;;5076403;28;20230;-84
2023/09/15 05:55:58;;;;;;;9.73;6.67;;;21.50;15.70;;;;;;5067078;28;20849;-84
2023/09/15 05:58:23;;;;;;;9.33;6.90;;;22.20;1.00;;;;;;5070852;28;20182;-84
2023/09/15 06:00:55;;;;;;;8.77;6.60;;;22.10;1.00;;;;;;5066648;28;20210;-82
2023/09/15 06:03:22;;;;;;;11.67;6.97;;;22.00;1.00;;;;;;5072261;28;20304;-82
2023/09/15 06:05:48;;;;;;;13.57;7.80;;;21.80;1.00;;;;;;5073247;28;20819;-84
2023/09/15 06:08:13;;;;;;;13.40;6.70;;;22.40;1.00;;;;;;5068837;28;20435;-82
2023/09/15 06:10:40;;;;;;;11.40;6.67;;;23.90;1.00;;;;;;5069463;28;20259;-83
2023/09/15 06:13:05;;;;;;;8.53;6.10;;;25.60;1.00;;;;;;5069336;28;20198;-84
2023/09/15 06:15:31;;;;;;;8.27;5.03;;;27.90;1.00;;;;;;5065770;28;20948;-84
2023/09/15 06:17:57;;;;;;;9.53;5.63;;;;;;;;;;5075457;28;20439;-85
2023/09/15 06:20:23;;;;;;;6.27;5.33;;;;;;;;;;5075588;28;20262;-82
2023/09/15 06:22:48;;;;;;;12.23;6.07;;;32.10;1.00;;;;;;5074565;28;20198;-84
2023/09/15 06:25:14;;;;;;;7.03;5.23;;;32.50;1.00;;;;;;5074638;28;20199;-84
2023/09/15 06:27:39;;;;;;;7.63;5.83;;;30.80;1.00;;;;;;5070341;28;20209;-83
2023/09/15 06:30:06;;;;;;;10.67;5.40;;;31.50;1.00;;;;;;5070962;28;20328;-84
2023/09/15 06:32:31;;;;;;;6.70;5.00;;;32.90;1.00;;;;;;5063123;28;20185;-84
2023/09/15 06:34:57;;;;;;;7.23;4.27;;;34.00;1.00;;;;;;5071683;28;20944;-84
2023/09/15 06:37:22;;;;;;;10.80;4.23;;;35.00;1.00;;;;;;5075515;28;20189;-81
2023/09/15 06:39:48;;;;;;;10.07;4.90;;;35.60;1.00;;;;;;5073324;28;20207;-84
2023/09/15 06:42:14;;;;;;;10.57;4.60;;;34.20;1.00;;;;;;5070138;28;20253;-83
2023/09/15 06:44:39;;;;;;;9.07;5.07;;;31.70;1.00;;;;;;5072562;28;20560;-83
2023/09/15 06:47:05;;;;;;;6.97;4.33;;;31.90;1.00;;;;;;5080352;28;20247;-84
2023/09/15 06:49:32;;;;;;;4.80;4.03;;;31.90;1.00;;;;;;5074634;28;20272;-84
2023/09/15 06:51:58;;;;;;;8.33;4.17;;;;;;;;;;5071114;28;20460;-84
2023/09/15 06:54:24;;;;;;;4.77;3.90;;;;;;;;;;5070892;28;20523;-80
2023/09/15 06:56:50;;;;;;;7.00;3.80;;;;;;;;;;5088960;28;20518;-84
2023/09/15 06:59:16;;;;;;;4.10;3.67;;;39.20;1.00;;;;;;5066345;28;20206;-84
2023/09/15 07:01:42;;;;;;;5.70;3.87;;;40.10;1.00;;;;;;5075408;28;20463;-84
2023/09/15 07:04:12;;;;;;;4.60;3.83;;;39.40;1.00;;;;;;5079395;28;20482;-85
2023/09/15 07:06:39;;;;;;;4.10;3.70;;;38.40;1.00;;;;;;5072771;28;20196;-84
2023/09/15 07:09:04;;;;;;;5.23;4.13;;;39.50;1.00;;;;;;5074259;28;20972;-84
2023/09/15 07:11:30;;;;;;;10.67;4.00;;;40.20;1.00;;;;;;5075101;28;20455;-83
2023/09/15 07:13:55;;;;;;;4.53;3.67;;;39.00;1.00;;;;;;5074054;28;20651;-84
2023/09/15 07:16:21;;;;;;;5.30;3.77;;;38.60;1.00;;;;;;5081536;28;20181;-85
2023/09/15 07:18:46;;;;;;;7.63;3.67;;;38.20;1.00;;;;;;5075496;28;20185;-82
2023/09/15 07:21:12;;;;;;;5.17;4.00;;;37.30;1.00;;;;;;5076346;28;20217;-84
2023/09/15 07:23:37;;;;;;;5.13;3.70;;;38.10;1.00;;;;;;5073248;28;20185;-84
2023/09/15 07:26:03;;;;;;;7.43;4.00;;;39.00;1.00;;;;;;5065130;28;20214;-81
2023/09/15 07:28:28;;;;;;;5.20;3.40;;;39.90;1.00;;;;;;5069956;28;20593;-81
2023/09/15 07:31:04;;;;;;;3.90;3.50;;;41.30;1.00;;;;;;5075760;28;20197;-83
2023/09/15 07:33:30;;;;;;;8.03;3.70;;;43.40;1.00;;;;;;5072859;28;20173;-82
2023/09/15 07:36:00;;;;;;;7.03;3.33;;;44.50;1.00;;;;;;5070011;28;20441;-81
2023/09/15 07:38:26;;;;;;;3.20;2.83;;;46.10;99.90;;;;;;5068060;28;20443;-82
2023/09/15 07:40:52;;;;;;;3.60;3.30;;;47.20;99.90;;;;;;5067412;28;20868;-81
2023/09/15 07:43:17;;;;;;;4.37;2.90;;;46.50;99.90;;;;;;5058814;28;20281;-82
2023/09/15 07:45:43;;;;;;;5.50;3.40;;;46.90;99.90;;;;;;5078403;28;20191;-81
2023/09/15 07:48:08;;;;;;;3.80;3.17;;;46.90;99.90;;;;;;5065284;28;20603;-82
2023/09/15 07:50:34;;;;;;;4.27;3.60;;;47.00;99.90;;;;;;5057057;28;20203;-82
2023/09/15 07:53:00;;;;;;;4.93;3.30;;;47.60;99.90;;;;;;5058247;28;20260;-82
2023/09/15 07:55:25;;;;;;;5.70;3.70;;;47.20;99.90;;;;;;5076721;28;20180;-82
2023/09/15 07:57:51;;;;;;;5.47;3.13;;;45.70;99.90;;;;;;5075735;28;20458;-82
2023/09/15 08:00:16;;;;;;;5.00;3.47;;;46.50;99.90;;;;;;5078017;28;20574;-81
2023/09/15 08:02:42;;;;;;;6.80;3.80;;;46.30;99.90;;;;;;5078265;28;20727;-79
2023/09/15 08:05:08;;;;;;;6.37;3.33;;;45.00;99.90;;;;;;5077931;28;20177;-81
2023/09/15 08:07:34;;;;;;;4.60;3.17;;;43.80;99.90;;;;;;5078535;28;20800;-83
2023/09/15 08:10:01;;;;;;;6.87;3.10;;;44.00;99.90;;;;;;5077865;28;20419;-83
2023/09/15 08:12:27;;;;;;;4.90;3.50;;;44.50;99.90;;;;;;5085679;28;20606;-83
2023/09/15 08:14:53;;;;;;;4.50;3.00;;;44.20;99.90;;;;;;5069242;28;20466;-83
2023/09/15 08:17:18;;;;;;;4.10;2.90;;;45.10;99.90;;;;;;5077420;28;20415;-84
2023/09/15 08:19:44;;;;;;;7.13;3.13;;;45.10;99.90;;;;;;5072289;28;20724;-82
2023/09/15 08:22:09;;;;;;;5.70;3.07;;;44.10;99.90;;;;;;5080249;28;20217;-83
2023/09/15 08:24:37;;;;;;;4.23;2.97;;;43.30;99.90;;;;;;5073883;28;20527;-84
2023/09/15 08:27:03;;;;;;;4.00;3.10;;;43.40;99.90;;;;;;5074563;28;20530;-84
2023/09/15 08:29:29;;;;;;;4.37;3.10;;;43.30;99.90;;;;;;5076885;28;20442;-81
2023/09/15 08:31:55;;;;;;;4.80;3.20;;;43.80;99.90;;;;;;5069686;28;20266;-84
2023/09/15 08:34:21;;;;;;;4.97;3.43;;;44.20;99.90;;;;;;5059739;28;20277;-81
2023/09/15 08:36:46;;;;;;;7.77;3.63;;;45.00;99.90;;;;;;5067586;28;20463;-83
2023/09/15 08:39:12;;;;;;;4.50;3.00;;;45.20;99.90;;;;;;5074272;28;20697;-83
2023/09/15 08:41:50;;;;;;;4.87;3.07;;;43.60;99.90;;;;;;5074230;28;20201;-83
2023/09/15 08:44:17;;;;;;;8.43;3.30;;;43.80;99.90;;;;;;5077182;28;20268;-83
2023/09/15 08:46:43;;;;;;;5.40;3.17;;;44.00;99.90;;;;;;5080539;28;20428;-83
2023/09/15 08:49:09;;;;;;;5.90;3.40;;;42.70;99.90;;;;;;5092161;28;20492;-84
2023/09/15 08:51:37;;;;;;;3.63;2.53;;;43.10;99.90;;;;;;5077482;28;20212;-84
2023/09/15 08:54:03;;;;;;;4.17;2.80;;;43.00;99.90;;;;;;5078267;28;20534;-83
2023/09/15 08:56:29;;;;;;;4.17;2.90;;;41.20;99.90;;;;;;5069908;28;20471;-83
2023/09/15 08:58:56;;;;;;;5.40;3.10;;;42.00;99.90;;;;;;5071025;28;20211;-84
2023/09/15 09:01:22;;;;;;;5.00;3.20;;;41.40;99.90;;;;;;5076015;28;20277;-83
2023/09/15 09:03:48;;;;;;;4.23;3.03;;;40.90;99.90;;;;;;5079664;28;20905;-83
2023/09/15 09:06:15;;;;;;;3.30;2.63;;;40.30;99.90;;;;;;5076009;28;20276;-82
2023/09/15 09:08:46;;;;;;;3.57;2.43;;;39.60;99.90;;;;;;5075961;28;20560;-83
2023/09/15 09:11:11;;;;;;;9.47;2.50;;;40.50;99.90;;;;;;5062367;28;20551;-84
2023/09/15 09:13:38;;;;;;;5.83;3.53;;;42.20;99.90;;;;;;5070605;28;20464;-83
2023/09/15 09:16:10;;;;;;;4.30;2.63;;;42.10;99.90;;;;;;5072926;28;20689;-82
2023/09/15 09:18:36;;;;;;;4.83;3.20;;;41.70;99.90;;;;;;5066735;28;20427;-83
2023/09/15 09:21:04;;;;;;;9.43;4.77;;;41.40;99.90;;;;;;5073744;28;20470;-82
2023/09/15 09:23:30;;;;;;;2.90;2.60;;;41.50;99.90;;;;;;5072895;28;20203;-85
2023/09/15 09:26:09;;;;;;;3.37;2.80;;;42.00;99.90;;;;;;5076224;28;20443;-83
2023/09/15 09:28:35;;;;;;;3.30;2.47;;;42.00;99.90;;;;;;5069928;28;20439;-82
2023/09/15 09:31:01;;;;;;;7.60;3.40;;;42.70;99.90;;;;;;5079652;28;20550;-84
2023/09/15 09:33:26;;;;;;;5.27;3.20;;;42.90;99.90;;;;;;5075091;28;20541;-83
2023/09/15 09:35:52;;;;;;;3.70;2.87;;;42.30;99.90;;;;;;5066265;28;20680;-83
2023/09/15 09:38:17;;;;;;;11.53;3.23;;;43.20;99.90;;;;;;5068297;28;20185;-81
2023/09/15 09:40:44;;;;;;;3.53;2.83;;;43.70;99.90;;;;;;5069590;28;20235;-82
2023/09/15 09:43:12;;;;;;;6.10;2.83;;;42.80;99.90;;;;;;5086088;28;20201;-83
2023/09/15 09:45:37;;;;;;;5.10;3.07;;;43.60;99.90;;;;;;5076580;28;20803;-84
2023/09/15 09:48:04;;;;;;;6.53;3.47;;;43.30;99.90;;;;;;5080441;28;20491;-83
2023/09/15 09:50:31;;;;;;;6.40;3.10;;;43.80;99.90;;;;;;5073702;28;20217;-84
2023/09/15 09:52:57;;;;;;;5.27;2.97;;;43.80;99.90;;;;;;5067168;28;20464;-83
2023/09/15 09:55:24;;;;;;;7.53;3.50;;;43.90;99.90;;;;;;5092930;28;20527;-83
2023/09/15 09:57:51;;;;;;;6.00;3.23;;;44.30;99.90;;;;;;5070633;28;20205;-84
2023/09/15 10:00:21;;;;;;;4.43;3.03;;;44.70;99.90;;;;;;5078066;28;20459;-83
2023/09/15 10:02:47;;;;;;;5.03;3.07;;;43.30;99.90;;;;;;5072390;28;20549;-83
2023/09/15 10:05:13;;;;;;;3.87;2.47;;;43.70;99.90;;;;;;5071998;28;20490;-83
2023/09/15 10:07:39;;;;;;;4.67;2.73;;;42.70;99.90;;;;;;5062724;28;20186;-80
2023/09/15 10:10:06;;;;;;;4.80;3.10;;;43.00;99.90;;;;;;5071054;28;20439;-82
2023/09/15 10:12:34;;;;;;;5.23;2.87;;;42.10;99.90;;;;;;5074726;28;20213;-83
2023/09/15 10:15:07;;;;;;;3.40;3.10;;;41.50;99.90;;;;;;5076162;28;20444;-82
2023/09/15 10:17:33;;;;;;;5.40;3.00;;;41.00;99.90;;;;;;5074551;28;20423;-83
2023/09/15 10:20:00;;;;;;;3.93;3.10;;;39.60;99.90;;;;;;5068234;28;20542;-82
2023/09/15 10:22:26;;;;;;;5.63;3.77;;;39.40;99.90;;;;;;5072117;28;20803;-83
2023/09/15 10:25:00;;;;;;;4.90;2.37;;;39.10;99.90;;;;;;5072151;28;20514;-83
2023/09/15 10:27:29;;;;;;;3.40;2.73;;;39.70;99.90;;;;;;5073765;28;20662;-83
2023/09/15 10:30:01;;;;;;;4.67;2.20;;;39.60;99.90;;;;;;5069615;28;20451;-83
2023/09/15 10:32:35;;;;;;;4.37;2.80;;;39.00;99.90;;;;;;5066601;28;20495;-82
2023/09/15 10:35:00;;;;;;;3.77;2.40;;;39.70;99.90;;;;;;5075352;28;20499;-82
2023/09/15 10:37:26;;;;;;;3.03;2.30;;;39.70;99.90;;;;;;5069424;28;20511;-82
2023/09/15 10:39:58;;;;;;;4.40;2.60;;;39.50;99.90;;;;;;5069249;28;20190;-85
2023/09/15 10:42:23;;;;;;;7.47;3.07;;;39.30;99.90;;;;;;5069022;28;20562;-83
2023/09/15 10:44:49;;;;;;;4.30;2.50;;;38.50;99.90;;;;;;5062702;28;20466;-82
2023/09/15 10:47:19;;;;;;;3.30;2.57;;;37.80;99.90;;;;;;5071947;28;20185;-83
2023/09/15 10:49:49;;;;;;;3.37;2.37;;;37.70;99.90;;;;;;5062364;28;20519;-82
2023/09/15 10:52:15;;;;;;;3.10;2.53;;;37.70;99.90;;;;;;5072379;28;20467;-82
2023/09/15 10:54:40;;;;;;;4.97;2.93;;;38.40;99.90;;;;;;5070719;28;20510;-83
2023/09/15 10:57:08;;;;;;;4.10;2.50;;;38.60;99.90;;;;;;5070281;28;20185;-82
2023/09/15 10:59:35;;;;;;;4.90;2.60;;;38.30;99.90;;;;;;5072783;28;20239;-79
2023/09/15 11:02:01;;;;;;;3.00;2.40;;;38.50;99.90;;;;;;5071152;28;20878;-82
2023/09/15 11:04:29;;;;;;;4.33;2.40;;;39.50;99.90;;;;;;5071441;28;20435;-82
2023/09/15 11:06:55;;;;;;;2.33;1.80;;;39.10;99.90;;;;;;5072428;28;20534;-82
2023/09/15 11:09:21;;;;;;;4.63;1.80;;;38.30;99.90;;;;;;5070291;28;20436;-81
2023/09/15 11:11:49;;;;;;;3.30;2.30;;;38.50;99.90;;;;;;5065082;28;20513;-82
2023/09/15 11:14:20;;;;;;;3.57;1.90;;;38.30;99.90;;;;;;5066965;28;20967;-82
2023/09/15 11:16:54;;;;;;;3.47;2.07;;;38.00;99.90;;;;;;5067749;28;20459;-83
2023/09/15 11:19:23;;;;;;;2.43;2.10;;;37.60;99.90;;;;;;5060491;28;20444;-82
2023/09/15 11:21:49;;;;;;;5.43;1.90;;;37.00;99.90;;;;;;5072295;28;21306;-82
2023/09/15 11:24:15;;;;;;;2.20;1.90;;;36.50;99.90;;;;;;5072455;28;20440;-81
2023/09/15 11:26:50;;;;;;;2.80;2.03;;;36.90;99.90;;;;;;5071616;28;20181;-82
2023/09/15 11:29:16;;;;;;;3.57;1.90;;;36.70;99.90;;;;;;5066649;28;20447;-83
2023/09/15 11:31:44;;;;;;;2.50;1.70;;;37.70;99.90;;;;;;5061976;28;20555;-82
2023/09/15 11:34:13;;;;;;;5.07;1.87;;;37.50;99.90;;;;;;5070955;28;20442;-81
2023/09/15 11:36:39;;;;;;;6.13;1.67;;;37.60;99.90;;;;;;5071866;28;20810;-82
2023/09/15 11:39:12;;;;;;;4.03;2.13;;;38.90;99.90;;;;;;5072010;28;20431;-83
2023/09/15 11:41:55;;;;;;;3.30;1.70;;;38.40;99.90;;;;;;5071407;28;20467;-82
2023/09/15 11:44:24;;;;;;;4.73;1.73;;;38.30;99.90;;;;;;5062299;28;20436;-80
2023/09/15 11:46:50;;;;;;;2.93;1.60;;;37.80;99.90;;;;;;5072928;28;20503;-82
2023/09/15 11:49:18;;;;;;;2.80;1.80;;;38.20;99.90;;;;;;5064502;28;20466;-83
2023/09/15 11:51:44;;;;;;;3.67;2.00;;;38.60;99.90;;;;;;5071228;28;20992;-82
2023/09/15 11:54:10;;;;;;;2.50;1.27;;;38.20;99.90;;;;;;5070195;28;20423;-81
2023/09/15 11:56:36;;;;;;;3.03;1.33;;;38.60;99.90;;;;;;5068836;28;20419;-81
2023/09/15 11:59:02;;;;;;;2.20;1.60;;;38.40;99.90;;;;;;5063156;28;20586;-82
2023/09/15 12:01:31;;;;;;;4.20;2.27;;;38.80;99.90;;;;;;5070047;28;20456;-82
2023/09/15 12:03:57;;;;;;;3.23;1.50;;;38.80;99.90;;;;;;5066855;28;20189;-81
2023/09/15 12:06:22;;;;;;;2.10;1.43;;;38.30;99.90;;;;;;5069146;28;20439;-81
2023/09/15 12:08:50;;;;;;;2.00;1.30;;;38.30;99.90;;;;;;5069866;28;20550;-82
2023/09/15 12:11:17;;;;;;;2.00;1.30;;;38.30;99.90;;;;;;5068777;28;20208;-83
2023/09/15 12:13:43;;;;;;;4.27;1.60;;;39.00;99.90;;;;;;5066509;28;20423;-82
2023/09/15 12:16:45;;;;;;;2.37;1.87;;;37.70;99.90;;;;;;5062661;28;20486;-82
2023/09/15 12:19:12;;;;;;;3.00;1.60;;;36.80;99.90;;;;;;5035796;28;20443;-81
2023/09/15 12:21:37;;;;;;;5.50;2.00;;;37.10;99.90;;;;;;5059440;28;21033;-82
2023/09/15 12:24:10;;;;;;;2.53;2.03;;;37.40;99.90;;;;;;5068204;28;20515;-82
2023/09/15 12:26:37;;;;;;;2.33;1.70;;;37.20;99.90;;;;;;5060407;28;20606;-82
2023/09/15 12:29:03;;;;;;;2.93;1.80;;;36.70;99.90;;;;;;5066009;28;20435;-82
2023/09/15 12:31:28;;;;;;;3.20;1.67;;;36.50;99.90;;;;;;5068883;28;20466;-82
2023/09/15 12:33:55;;;;;;;3.53;2.23;;;36.70;99.90;;;;;;5069187;28;20189;-83
2023/09/15 12:36:22;;;;;;;3.30;1.90;;;37.10;99.90;;;;;;5067516;28;20928;-83
2023/09/15 12:38:48;;;;;;;3.40;2.10;;;37.40;99.90;;;;;;5063997;28;20439;-82
2023/09/15 12:41:14;;;;;;;11.03;2.20;;;36.40;99.90;;;;;;5064770;28;20486;-83
2023/09/15 12:43:40;;;;;;;2.20;1.67;;;36.80;99.90;;;;;;5055877;28;20468;-84
2023/09/15 12:46:05;;;;;;;3.10;2.20;;;36.70;99.90;;;;;;5071087;28;20799;-82